sensor_id;sensor_type;location;lat;lon;timestamp;P1;durP1;ratioP1;P2;durP2;ratioP2
71648;SDS011;59492;45.638;11.714;2022-07-11T00:00:13;4.30;;;2.00;;
71648;SDS011;59492;45.638;11.714;2022-07-11T00:02:40;3.50;;;2.30;;
71648;SDS011;59492;45.638;11.714;2022-07-11T00:05:06;2.40;;;1.80;;
71648;SDS011;59492;45.638;11.714;2022-07-11T00:07:34;2.40;;;1.80;;
71648;SDS011;59492;45.638;11.714;2022-07-11T00:10:01;4.50;;;1.90;;
71648;SDS011;59492;45.638;11.714;2022-07-11T00:12:27;3.10;;;2.20;;
71648;SDS011;59492;45.638;11.714;2022-07-11T00:14:53;1.90;;;1.70;;
71648;SDS011;59492;45.638;11.714;2022-07-11T00:17:20;3.60;;;1.80;;
71648;SDS011;59492;45.638;11.714;2022-07-11T00:19:46;2.60;;;1.90;;
71648;SDS011;59492;45.638;11.714;2022-07-11T00:22:12;3.20;;;1.90;;
71648;SDS011;59492;45.638;11.714;2022-07-11T00:24:40;4.20;;;1.90;;
71648;SDS011;59492;45.638;11.714;2022-07-11T00:27:08;3.10;;;2.00;;
71648;SDS011;59492;45.638;11.714;2022-07-11T00:29:34;3.60;;;2.00;;
71648;SDS011;59492;45.638;11.714;2022-07-11T00:32:00;2.60;;;2.10;;
71648;SDS011;59492;45.638;11.714;2022-07-11T00:34:26;4.00;;;2.20;;
71648;SDS011;59492;45.638;11.714;2022-07-11T00:36:51;2.60;;;2.10;;
71648;SDS011;59492;45.638;11.714;2022-07-11T00:39:17;2.80;;;2.00;;
71648;SDS011;59492;45.638;11.714;2022-07-11T00:41:43;2.20;;;1.70;;
71648;SDS011;59492;45.638;11.714;2022-07-11T00:44:09;3.30;;;1.90;;
71648;SDS011;59492;45.638;11.714;2022-07-11T00:46:45;2.40;;;1.80;;
71648;SDS011;59492;45.638;11.714;2022-07-11T00:49:10;2.90;;;1.70;;
71648;SDS011;59492;45.638;11.714;2022-07-11T00:51:45;3.40;;;2.20;;
71648;SDS011;59492;45.638;11.714;2022-07-11T00:54:11;3.40;;;1.60;;
71648;SDS011;59492;45.638;11.714;2022-07-11T00:56:40;2.60;;;1.90;;
71648;SDS011;59492;45.638;11.714;2022-07-11T00:59:06;3.40;;;1.80;;
71648;SDS011;59492;45.638;11.714;2022-07-11T01:01:37;3.40;;;1.90;;
71648;SDS011;59492;45.638;11.714;2022-07-11T01:04:03;2.40;;;1.90;;
71648;SDS011;59492;45.638;11.714;2022-07-11T01:06:29;3.20;;;1.90;;
71648;SDS011;59492;45.638;11.714;2022-07-11T01:08:55;3.20;;;2.00;;
71648;SDS011;59492;45.638;11.714;2022-07-11T01:11:21;1.80;;;1.60;;
71648;SDS011;59492;45.638;11.714;2022-07-11T01:13:50;3.40;;;2.10;;
71648;SDS011;59492;45.638;11.714;2022-07-11T01:16:17;3.00;;;2.10;;
71648;SDS011;59492;45.638;11.714;2022-07-11T01:18:50;2.70;;;2.00;;
71648;SDS011;59492;45.638;11.714;2022-07-11T01:23:57;2.90;;;1.60;;
71648;SDS011;59492;45.638;11.714;2022-07-11T01:26:25;2.60;;;1.80;;
71648;SDS011;59492;45.638;11.714;2022-07-11T01:28:52;3.40;;;1.70;;
71648;SDS011;59492;45.638;11.714;2022-07-11T01:31:18;5.40;;;2.00;;
71648;SDS011;59492;45.638;11.714;2022-07-11T01:33:45;2.40;;;1.70;;
71648;SDS011;59492;45.638;11.714;2022-07-11T01:36:11;2.50;;;1.90;;
71648;SDS011;59492;45.638;11.714;2022-07-11T01:38:38;3.00;;;1.70;;
71648;SDS011;59492;45.638;11.714;2022-07-11T01:41:04;2.80;;;1.90;;
71648;SDS011;59492;45.638;11.714;2022-07-11T01:43:31;2.80;;;1.70;;
71648;SDS011;59492;45.638;11.714;2022-07-11T01:45:57;2.90;;;2.00;;
71648;SDS011;59492;45.638;11.714;2022-07-11T01:48:23;2.40;;;1.80;;
71648;SDS011;59492;45.638;11.714;2022-07-11T01:50:49;3.10;;;1.90;;
71648;SDS011;59492;45.638;11.714;2022-07-11T01:53:15;2.60;;;2.00;;
71648;SDS011;59492;45.638;11.714;2022-07-11T01:55:42;3.20;;;1.80;;
71648;SDS011;59492;45.638;11.714;2022-07-11T01:58:08;3.40;;;1.80;;
71648;SDS011;59492;45.638;11.714;2022-07-11T02:00:34;6.80;;;2.20;;
71648;SDS011;59492;45.638;11.714;2022-07-11T02:03:00;3.00;;;1.70;;
71648;SDS011;59492;45.638;11.714;2022-07-11T02:05:25;2.60;;;1.80;;
71648;SDS011;59492;45.638;11.714;2022-07-11T02:07:51;2.10;;;1.50;;
71648;SDS011;59492;45.638;11.714;2022-07-11T02:10:37;2.20;;;1.70;;
71648;SDS011;59492;45.638;11.714;2022-07-11T02:13:04;2.40;;;1.80;;
71648;SDS011;59492;45.638;11.714;2022-07-11T02:15:30;1.90;;;1.60;;
71648;SDS011;59492;45.638;11.714;2022-07-11T02:17:56;2.20;;;1.90;;
71648;SDS011;59492;45.638;11.714;2022-07-11T02:20:22;4.90;;;1.50;;
71648;SDS011;59492;45.638;11.714;2022-07-11T02:22:49;3.60;;;1.80;;
71648;SDS011;59492;45.638;11.714;2022-07-11T02:25:15;2.20;;;1.50;;
71648;SDS011;59492;45.638;11.714;2022-07-11T02:27:41;6.30;;;1.90;;
71648;SDS011;59492;45.638;11.714;2022-07-11T02:30:08;3.30;;;1.80;;
71648;SDS011;59492;45.638;11.714;2022-07-11T02:32:34;5.00;;;2.20;;
71648;SDS011;59492;45.638;11.714;2022-07-11T02:34:59;2.30;;;1.60;;
71648;SDS011;59492;45.638;11.714;2022-07-11T02:37:25;3.30;;;2.40;;
71648;SDS011;59492;45.638;11.714;2022-07-11T02:39:51;2.90;;;1.80;;
71648;SDS011;59492;45.638;11.714;2022-07-11T02:42:17;2.80;;;1.60;;
71648;SDS011;59492;45.638;11.714;2022-07-11T02:44:46;3.40;;;1.90;;
71648;SDS011;59492;45.638;11.714;2022-07-11T02:47:12;2.60;;;1.60;;
71648;SDS011;59492;45.638;11.714;2022-07-11T02:49:41;1.60;;;1.40;;
71648;SDS011;59492;45.638;11.714;2022-07-11T02:52:08;2.00;;;1.60;;
71648;SDS011;59492;45.638;11.714;2022-07-11T02:54:34;4.80;;;2.00;;
71648;SDS011;59492;45.638;11.714;2022-07-11T02:57:00;2.20;;;1.60;;
71648;SDS011;59492;45.638;11.714;2022-07-11T02:59:29;4.00;;;2.00;;
71648;SDS011;59492;45.638;11.714;2022-07-11T03:01:54;2.50;;;1.70;;
71648;SDS011;59492;45.638;11.714;2022-07-11T03:04:20;2.50;;;1.80;;
71648;SDS011;59492;45.638;11.714;2022-07-11T03:06:46;2.00;;;1.40;;
71648;SDS011;59492;45.638;11.714;2022-07-11T03:09:12;2.90;;;1.50;;
71648;SDS011;59492;45.638;11.714;2022-07-11T03:11:38;2.50;;;1.60;;
71648;SDS011;59492;45.638;11.714;2022-07-11T03:14:04;3.20;;;1.80;;
71648;SDS011;59492;45.638;11.714;2022-07-11T03:16:33;4.10;;;1.60;;
71648;SDS011;59492;45.638;11.714;2022-07-11T03:18:59;2.40;;;1.80;;
71648;SDS011;59492;45.638;11.714;2022-07-11T03:21:27;2.90;;;1.80;;
71648;SDS011;59492;45.638;11.714;2022-07-11T03:23:56;2.40;;;1.60;;
71648;SDS011;59492;45.638;11.714;2022-07-11T03:26:22;3.60;;;1.90;;
71648;SDS011;59492;45.638;11.714;2022-07-11T03:28:47;3.80;;;1.70;;
71648;SDS011;59492;45.638;11.714;2022-07-11T03:31:13;2.60;;;1.60;;
71648;SDS011;59492;45.638;11.714;2022-07-11T03:33:39;3.10;;;1.50;;
71648;SDS011;59492;45.638;11.714;2022-07-11T03:36:05;2.20;;;1.60;;
71648;SDS011;59492;45.638;11.714;2022-07-11T03:38:31;2.70;;;1.50;;
71648;SDS011;59492;45.638;11.714;2022-07-11T03:40:59;2.40;;;1.80;;
71648;SDS011;59492;45.638;11.714;2022-07-11T03:43:30;1.90;;;1.60;;
71648;SDS011;59492;45.638;11.714;2022-07-11T03:45:58;3.80;;;1.80;;
71648;SDS011;59492;45.638;11.714;2022-07-11T03:48:28;3.50;;;1.80;;
71648;SDS011;59492;45.638;11.714;2022-07-11T03:50:54;1.90;;;1.60;;
71648;SDS011;59492;45.638;11.714;2022-07-11T03:53:20;2.10;;;1.80;;
71648;SDS011;59492;45.638;11.714;2022-07-11T03:55:46;3.00;;;1.70;;
71648;SDS011;59492;45.638;11.714;2022-07-11T03:58:11;4.10;;;1.70;;
71648;SDS011;59492;45.638;11.714;2022-07-11T04:00:37;2.90;;;1.70;;
71648;SDS011;59492;45.638;11.714;2022-07-11T04:03:03;2.50;;;1.60;;
71648;SDS011;59492;45.638;11.714;2022-07-11T04:05:32;3.60;;;1.80;;
71648;SDS011;59492;45.638;11.714;2022-07-11T04:07:58;4.10;;;2.10;;
71648;SDS011;59492;45.638;11.714;2022-07-11T04:10:35;8.30;;;2.00;;
71648;SDS011;59492;45.638;11.714;2022-07-11T04:13:03;2.60;;;2.00;;
71648;SDS011;59492;45.638;11.714;2022-07-11T04:15:29;6.40;;;1.80;;
71648;SDS011;59492;45.638;11.714;2022-07-11T04:17:55;5.10;;;2.00;;
71648;SDS011;59492;45.638;11.714;2022-07-11T04:20:26;4.90;;;2.20;;
71648;SDS011;59492;45.638;11.714;2022-07-11T04:22:52;4.70;;;2.10;;
71648;SDS011;59492;45.638;11.714;2022-07-11T04:25:23;6.90;;;1.90;;
71648;SDS011;59492;45.638;11.714;2022-07-11T04:27:49;4.10;;;2.10;;
71648;SDS011;59492;45.638;11.714;2022-07-11T04:30:18;9.20;;;2.20;;
71648;SDS011;59492;45.638;11.714;2022-07-11T04:32:44;9.30;;;2.30;;
71648;SDS011;59492;45.638;11.714;2022-07-11T04:35:16;4.50;;;1.90;;
71648;SDS011;59492;45.638;11.714;2022-07-11T04:37:45;7.70;;;1.90;;
71648;SDS011;59492;45.638;11.714;2022-07-11T04:40:13;4.50;;;2.10;;
71648;SDS011;59492;45.638;11.714;2022-07-11T04:42:39;5.60;;;2.00;;
71648;SDS011;59492;45.638;11.714;2022-07-11T04:45:05;3.00;;;1.80;;
71648;SDS011;59492;45.638;11.714;2022-07-11T04:47:35;4.20;;;1.70;;
71648;SDS011;59492;45.638;11.714;2022-07-11T04:50:00;2.60;;;1.80;;
71648;SDS011;59492;45.638;11.714;2022-07-11T04:52:27;3.60;;;1.90;;
71648;SDS011;59492;45.638;11.714;2022-07-11T04:54:53;3.70;;;2.10;;
71648;SDS011;59492;45.638;11.714;2022-07-11T04:57:19;3.30;;;1.70;;
71648;SDS011;59492;45.638;11.714;2022-07-11T04:59:45;5.70;;;1.80;;
71648;SDS011;59492;45.638;11.714;2022-07-11T05:02:11;4.70;;;1.80;;
71648;SDS011;59492;45.638;11.714;2022-07-11T05:04:42;5.80;;;2.10;;
71648;SDS011;59492;45.638;11.714;2022-07-11T05:07:09;4.20;;;2.20;;
71648;SDS011;59492;45.638;11.714;2022-07-11T05:09:42;5.70;;;2.10;;
71648;SDS011;59492;45.638;11.714;2022-07-11T05:12:17;4.90;;;1.90;;
71648;SDS011;59492;45.638;11.714;2022-07-11T05:14:45;3.70;;;2.00;;
71648;SDS011;59492;45.638;11.714;2022-07-11T05:17:15;2.80;;;1.70;;
71648;SDS011;59492;45.638;11.714;2022-07-11T05:19:41;2.50;;;1.70;;
71648;SDS011;59492;45.638;11.714;2022-07-11T05:22:09;2.90;;;1.90;;
71648;SDS011;59492;45.638;11.714;2022-07-11T05:24:35;4.10;;;2.00;;
71648;SDS011;59492;45.638;11.714;2022-07-11T05:27:01;3.30;;;1.80;;
71648;SDS011;59492;45.638;11.714;2022-07-11T05:29:27;6.20;;;1.70;;
71648;SDS011;59492;45.638;11.714;2022-07-11T05:31:53;2.10;;;1.80;;
71648;SDS011;59492;45.638;11.714;2022-07-11T05:34:19;2.10;;;1.80;;
71648;SDS011;59492;45.638;11.714;2022-07-11T05:36:45;4.50;;;2.20;;
71648;SDS011;59492;45.638;11.714;2022-07-11T05:39:12;1.80;;;1.70;;
71648;SDS011;59492;45.638;11.714;2022-07-11T05:41:38;4.50;;;2.00;;
71648;SDS011;59492;45.638;11.714;2022-07-11T05:44:04;4.10;;;2.00;;
71648;SDS011;59492;45.638;11.714;2022-07-11T05:46:29;2.80;;;1.90;;
71648;SDS011;59492;45.638;11.714;2022-07-11T05:48:55;4.40;;;1.90;;
71648;SDS011;59492;45.638;11.714;2022-07-11T05:51:21;3.70;;;1.90;;
71648;SDS011;59492;45.638;11.714;2022-07-11T05:53:47;2.00;;;1.80;;
71648;SDS011;59492;45.638;11.714;2022-07-11T05:56:13;3.10;;;1.80;;
71648;SDS011;59492;45.638;11.714;2022-07-11T05:58:39;3.00;;;2.00;;
71648;SDS011;59492;45.638;11.714;2022-07-11T06:01:05;2.40;;;1.80;;
71648;SDS011;59492;45.638;11.714;2022-07-11T06:03:31;2.20;;;1.90;;
71648;SDS011;59492;45.638;11.714;2022-07-11T06:06:08;6.60;;;2.20;;
71648;SDS011;59492;45.638;11.714;2022-07-11T06:08:35;2.80;;;1.80;;
71648;SDS011;59492;45.638;11.714;2022-07-11T06:11:11;3.90;;;2.20;;
71648;SDS011;59492;45.638;11.714;2022-07-11T06:13:41;4.20;;;1.90;;
71648;SDS011;59492;45.638;11.714;2022-07-11T06:16:09;3.80;;;2.10;;
71648;SDS011;59492;45.638;11.714;2022-07-11T06:18:41;2.30;;;2.00;;
71648;SDS011;59492;45.638;11.714;2022-07-11T06:21:07;5.10;;;1.90;;
71648;SDS011;59492;45.638;11.714;2022-07-11T06:23:37;3.20;;;2.10;;
71648;SDS011;59492;45.638;11.714;2022-07-11T06:26:03;2.70;;;1.80;;
71648;SDS011;59492;45.638;11.714;2022-07-11T06:28:57;2.50;;;1.70;;
71648;SDS011;59492;45.638;11.714;2022-07-11T06:31:22;2.70;;;1.70;;
71648;SDS011;59492;45.638;11.714;2022-07-11T06:33:51;2.70;;;1.60;;
71648;SDS011;59492;45.638;11.714;2022-07-11T06:36:24;4.00;;;1.80;;
71648;SDS011;59492;45.638;11.714;2022-07-11T06:38:51;2.40;;;1.70;;
71648;SDS011;59492;45.638;11.714;2022-07-11T06:41:20;2.40;;;1.80;;
71648;SDS011;59492;45.638;11.714;2022-07-11T06:43:47;6.60;;;1.80;;
71648;SDS011;59492;45.638;11.714;2022-07-11T06:46:13;2.80;;;1.90;;
71648;SDS011;59492;45.638;11.714;2022-07-11T06:48:40;3.20;;;2.00;;
71648;SDS011;59492;45.638;11.714;2022-07-11T06:51:11;3.40;;;1.80;;
71648;SDS011;59492;45.638;11.714;2022-07-11T06:53:42;2.30;;;1.80;;
71648;SDS011;59492;45.638;11.714;2022-07-11T06:58:39;3.90;;;2.00;;
71648;SDS011;59492;45.638;11.714;2022-07-11T07:01:19;2.60;;;1.70;;
71648;SDS011;59492;45.638;11.714;2022-07-11T07:03:50;4.10;;;2.30;;
71648;SDS011;59492;45.638;11.714;2022-07-11T07:06:18;2.30;;;1.90;;
71648;SDS011;59492;45.638;11.714;2022-07-11T07:08:44;5.10;;;2.00;;
71648;SDS011;59492;45.638;11.714;2022-07-11T07:11:14;6.70;;;2.10;;
71648;SDS011;59492;45.638;11.714;2022-07-11T07:13:48;6.00;;;2.10;;
71648;SDS011;59492;45.638;11.714;2022-07-11T07:16:18;8.40;;;2.30;;
71648;SDS011;59492;45.638;11.714;2022-07-11T07:21:15;2.40;;;2.00;;
71648;SDS011;59492;45.638;11.714;2022-07-11T07:23:58;5.30;;;2.00;;
71648;SDS011;59492;45.638;11.714;2022-07-11T07:26:26;3.80;;;1.80;;
71648;SDS011;59492;45.638;11.714;2022-07-11T07:28:57;2.90;;;1.90;;
71648;SDS011;59492;45.638;11.714;2022-07-11T07:31:25;3.00;;;1.60;;
71648;SDS011;59492;45.638;11.714;2022-07-11T07:33:51;2.80;;;1.70;;
71648;SDS011;59492;45.638;11.714;2022-07-11T07:36:18;3.60;;;1.80;;
71648;SDS011;59492;45.638;11.714;2022-07-11T07:38:44;2.40;;;1.60;;
71648;SDS011;59492;45.638;11.714;2022-07-11T07:41:17;2.70;;;1.60;;
71648;SDS011;59492;45.638;11.714;2022-07-11T07:43:45;5.80;;;1.70;;
71648;SDS011;59492;45.638;11.714;2022-07-11T07:46:14;2.30;;;1.90;;
71648;SDS011;59492;45.638;11.714;2022-07-11T07:48:43;2.50;;;1.80;;
71648;SDS011;59492;45.638;11.714;2022-07-11T07:51:10;3.60;;;1.90;;
71648;SDS011;59492;45.638;11.714;2022-07-11T07:53:41;6.00;;;1.90;;
71648;SDS011;59492;45.638;11.714;2022-07-11T07:56:12;3.20;;;1.90;;
71648;SDS011;59492;45.638;11.714;2022-07-11T07:58:44;2.40;;;1.80;;
71648;SDS011;59492;45.638;11.714;2022-07-11T08:01:10;3.60;;;2.10;;
71648;SDS011;59492;45.638;11.714;2022-07-11T08:03:55;2.20;;;1.90;;
71648;SDS011;59492;45.638;11.714;2022-07-11T08:06:29;3.40;;;2.00;;
71648;SDS011;59492;45.638;11.714;2022-07-11T08:09:16;4.60;;;2.00;;
71648;SDS011;59492;45.638;11.714;2022-07-11T08:11:43;2.50;;;1.60;;
71648;SDS011;59492;45.638;11.714;2022-07-11T08:14:12;3.00;;;2.00;;
71648;SDS011;59492;45.638;11.714;2022-07-11T08:16:55;3.60;;;2.00;;
71648;SDS011;59492;45.638;11.714;2022-07-11T08:19:45;2.40;;;1.80;;
71648;SDS011;59492;45.638;11.714;2022-07-11T08:22:23;3.90;;;1.90;;
71648;SDS011;59492;45.638;11.714;2022-07-11T08:24:53;5.00;;;1.70;;
71648;SDS011;59492;45.638;11.714;2022-07-11T08:27:27;2.80;;;1.80;;
71648;SDS011;59492;45.638;11.714;2022-07-11T08:29:53;2.60;;;1.80;;
71648;SDS011;59492;45.638;11.714;2022-07-11T08:32:31;2.00;;;1.80;;
71648;SDS011;59492;45.638;11.714;2022-07-11T08:34:59;3.90;;;1.80;;
71648;SDS011;59492;45.638;11.714;2022-07-11T08:37:30;3.40;;;2.00;;
71648;SDS011;59492;45.638;11.714;2022-07-11T08:39:59;2.90;;;1.90;;
71648;SDS011;59492;45.638;11.714;2022-07-11T08:42:28;3.20;;;1.80;;
71648;SDS011;59492;45.638;11.714;2022-07-11T08:44:56;2.60;;;1.70;;
71648;SDS011;59492;45.638;11.714;2022-07-11T08:47:25;2.80;;;2.10;;
71648;SDS011;59492;45.638;11.714;2022-07-11T08:49:51;3.20;;;1.60;;
71648;SDS011;59492;45.638;11.714;2022-07-11T08:52:20;2.90;;;2.00;;
71648;SDS011;59492;45.638;11.714;2022-07-11T08:54:47;3.50;;;2.00;;
71648;SDS011;59492;45.638;11.714;2022-07-11T08:57:18;3.50;;;1.80;;
71648;SDS011;59492;45.638;11.714;2022-07-11T08:59:45;6.20;;;1.90;;
71648;SDS011;59492;45.638;11.714;2022-07-11T09:02:13;5.70;;;1.80;;
71648;SDS011;59492;45.638;11.714;2022-07-11T09:04:41;2.70;;;1.60;;
71648;SDS011;59492;45.638;11.714;2022-07-11T09:07:07;5.70;;;1.80;;
71648;SDS011;59492;45.638;11.714;2022-07-11T09:09:32;2.30;;;1.70;;
71648;SDS011;59492;45.638;11.714;2022-07-11T09:11:58;3.30;;;1.90;;
71648;SDS011;59492;45.638;11.714;2022-07-11T09:14:30;3.60;;;2.00;;
71648;SDS011;59492;45.638;11.714;2022-07-11T09:17:00;3.30;;;1.90;;
71648;SDS011;59492;45.638;11.714;2022-07-11T09:19:28;3.80;;;1.60;;
71648;SDS011;59492;45.638;11.714;2022-07-11T09:21:56;5.80;;;1.90;;
71648;SDS011;59492;45.638;11.714;2022-07-11T09:24:58;4.90;;;2.00;;
71648;SDS011;59492;45.638;11.714;2022-07-11T09:30:31;3.60;;;2.00;;
71648;SDS011;59492;45.638;11.714;2022-07-11T09:33:12;3.40;;;1.80;;
71648;SDS011;59492;45.638;11.714;2022-07-11T09:35:38;2.90;;;1.70;;
71648;SDS011;59492;45.638;11.714;2022-07-11T09:38:25;4.10;;;1.90;;
71648;SDS011;59492;45.638;11.714;2022-07-11T09:40:51;3.70;;;1.90;;
71648;SDS011;59492;45.638;11.714;2022-07-11T09:43:26;3.10;;;1.80;;
71648;SDS011;59492;45.638;11.714;2022-07-11T09:45:52;2.80;;;2.10;;
71648;SDS011;59492;45.638;11.714;2022-07-11T09:48:17;2.80;;;2.30;;
71648;SDS011;59492;45.638;11.714;2022-07-11T09:51:26;4.50;;;2.10;;
71648;SDS011;59492;45.638;11.714;2022-07-11T09:53:32;1.90;;;1.60;;
71648;SDS011;59492;45.638;11.714;2022-07-11T09:55:58;3.20;;;1.90;;
71648;SDS011;59492;45.638;11.714;2022-07-11T09:58:28;6.50;;;2.20;;
71648;SDS011;59492;45.638;11.714;2022-07-11T10:00:54;5.50;;;1.90;;
71648;SDS011;59492;45.638;11.714;2022-07-11T10:03:20;3.90;;;2.20;;
71648;SDS011;59492;45.638;11.714;2022-07-11T10:05:50;2.90;;;1.80;;
71648;SDS011;59492;45.638;11.714;2022-07-11T10:08:16;4.00;;;2.20;;
71648;SDS011;59492;45.638;11.714;2022-07-11T10:10:42;2.70;;;2.00;;
71648;SDS011;59492;45.638;11.714;2022-07-11T10:13:08;4.40;;;2.20;;
71648;SDS011;59492;45.638;11.714;2022-07-11T10:15:35;4.40;;;2.20;;
71648;SDS011;59492;45.638;11.714;2022-07-11T10:21:06;4.30;;;1.90;;
71648;SDS011;59492;45.638;11.714;2022-07-11T10:23:42;5.50;;;1.80;;
71648;SDS011;59492;45.638;11.714;2022-07-11T10:26:11;3.90;;;2.30;;
71648;SDS011;59492;45.638;11.714;2022-07-11T10:28:53;6.20;;;2.00;;
71648;SDS011;59492;45.638;11.714;2022-07-11T10:31:21;4.70;;;2.10;;
71648;SDS011;59492;45.638;11.714;2022-07-11T10:34:04;3.80;;;2.30;;
71648;SDS011;59492;45.638;11.714;2022-07-11T10:36:39;3.30;;;1.80;;
71648;SDS011;59492;45.638;11.714;2022-07-11T10:39:15;3.90;;;2.20;;
71648;SDS011;59492;45.638;11.714;2022-07-11T10:41:50;5.00;;;2.50;;
71648;SDS011;59492;45.638;11.714;2022-07-11T10:44:17;4.40;;;2.30;;
71648;SDS011;59492;45.638;11.714;2022-07-11T10:46:43;3.90;;;1.90;;
71648;SDS011;59492;45.638;11.714;2022-07-11T10:54:21;5.00;;;2.10;;
71648;SDS011;59492;45.638;11.714;2022-07-11T10:59:54;3.80;;;2.10;;
71648;SDS011;59492;45.638;11.714;2022-07-11T11:02:24;5.30;;;2.20;;
71648;SDS011;59492;45.638;11.714;2022-07-11T11:04:54;3.60;;;2.20;;
71648;SDS011;59492;45.638;11.714;2022-07-11T11:10:07;4.50;;;2.10;;
71648;SDS011;59492;45.638;11.714;2022-07-11T11:15:42;5.90;;;2.10;;
71648;SDS011;59492;45.638;11.714;2022-07-11T11:23:37;2.50;;;2.00;;
71648;SDS011;59492;45.638;11.714;2022-07-11T11:26:11;4.80;;;2.20;;
71648;SDS011;59492;45.638;11.714;2022-07-11T11:28:56;2.20;;;1.90;;
71648;SDS011;59492;45.638;11.714;2022-07-11T11:31:26;3.60;;;2.20;;
71648;SDS011;59492;45.638;11.714;2022-07-11T11:33:55;3.90;;;2.00;;
71648;SDS011;59492;45.638;11.714;2022-07-11T11:36:23;3.30;;;2.00;;
71648;SDS011;59492;45.638;11.714;2022-07-11T11:38:49;2.70;;;1.60;;
71648;SDS011;59492;45.638;11.714;2022-07-11T11:41:24;3.00;;;2.20;;
71648;SDS011;59492;45.638;11.714;2022-07-11T11:43:58;3.70;;;1.90;;
71648;SDS011;59492;45.638;11.714;2022-07-11T11:46:26;2.10;;;1.90;;
71648;SDS011;59492;45.638;11.714;2022-07-11T11:48:56;4.20;;;2.20;;
71648;SDS011;59492;45.638;11.714;2022-07-11T11:51:24;3.00;;;1.90;;
71648;SDS011;59492;45.638;11.714;2022-07-11T11:53:53;3.80;;;2.00;;
71648;SDS011;59492;45.638;11.714;2022-07-11T11:56:30;2.50;;;1.90;;
71648;SDS011;59492;45.638;11.714;2022-07-11T11:59:08;6.10;;;2.30;;
71648;SDS011;59492;45.638;11.714;2022-07-11T12:01:38;7.00;;;2.60;;
71648;SDS011;59492;45.638;11.714;2022-07-11T12:04:09;6.50;;;2.50;;
71648;SDS011;59492;45.638;11.714;2022-07-11T12:06:36;6.30;;;2.70;;
71648;SDS011;59492;45.638;11.714;2022-07-11T12:09:07;7.30;;;2.60;;
71648;SDS011;59492;45.638;11.714;2022-07-11T12:11:38;6.10;;;3.10;;
71648;SDS011;59492;45.638;11.714;2022-07-11T12:14:15;7.40;;;2.80;;
71648;SDS011;59492;45.638;11.714;2022-07-11T12:16:46;7.20;;;2.60;;
71648;SDS011;59492;45.638;11.714;2022-07-11T12:19:17;7.40;;;2.90;;
71648;SDS011;59492;45.638;11.714;2022-07-11T12:21:48;7.60;;;3.00;;
71648;SDS011;59492;45.638;11.714;2022-07-11T12:24:22;6.60;;;2.80;;
71648;SDS011;59492;45.638;11.714;2022-07-11T12:26:51;5.00;;;2.70;;
71648;SDS011;59492;45.638;11.714;2022-07-11T12:29:18;6.70;;;2.90;;
71648;SDS011;59492;45.638;11.714;2022-07-11T12:37:01;8.50;;;3.00;;
71648;SDS011;59492;45.638;11.714;2022-07-11T12:39:37;7.10;;;2.70;;
71648;SDS011;59492;45.638;11.714;2022-07-11T12:44:56;4.40;;;2.70;;
71648;SDS011;59492;45.638;11.714;2022-07-11T12:47:36;7.30;;;2.80;;
71648;SDS011;59492;45.638;11.714;2022-07-11T12:50:28;5.30;;;2.70;;
71648;SDS011;59492;45.638;11.714;2022-07-11T12:52:55;5.50;;;2.50;;
71648;SDS011;59492;45.638;11.714;2022-07-11T12:55:26;3.30;;;2.20;;
71648;SDS011;59492;45.638;11.714;2022-07-11T12:58:01;5.30;;;3.00;;
71648;SDS011;59492;45.638;11.714;2022-07-11T13:00:41;5.00;;;2.20;;
71648;SDS011;59492;45.638;11.714;2022-07-11T13:03:27;7.80;;;2.30;;
71648;SDS011;59492;45.638;11.714;2022-07-11T13:05:56;4.60;;;2.50;;
71648;SDS011;59492;45.638;11.714;2022-07-11T13:08:27;5.40;;;2.60;;
71648;SDS011;59492;45.638;11.714;2022-07-11T13:11:15;4.70;;;2.40;;
71648;SDS011;59492;45.638;11.714;2022-07-11T13:13:43;4.20;;;2.20;;
71648;SDS011;59492;45.638;11.714;2022-07-11T13:16:11;4.60;;;2.30;;
71648;SDS011;59492;45.638;11.714;2022-07-11T13:18:38;4.90;;;2.50;;
71648;SDS011;59492;45.638;11.714;2022-07-11T13:21:04;3.90;;;2.20;;
71648;SDS011;59492;45.638;11.714;2022-07-11T13:23:36;5.00;;;2.30;;
71648;SDS011;59492;45.638;11.714;2022-07-11T13:26:03;3.20;;;2.20;;
71648;SDS011;59492;45.638;11.714;2022-07-11T13:28:40;4.00;;;2.30;;
71648;SDS011;59492;45.638;11.714;2022-07-11T13:31:05;4.50;;;2.50;;
71648;SDS011;59492;45.638;11.714;2022-07-11T13:33:34;5.30;;;2.50;;
71648;SDS011;59492;45.638;11.714;2022-07-11T13:36:00;4.30;;;2.10;;
71648;SDS011;59492;45.638;11.714;2022-07-11T13:38:29;3.80;;;2.00;;
71648;SDS011;59492;45.638;11.714;2022-07-11T13:40:55;4.10;;;2.00;;
71648;SDS011;59492;45.638;11.714;2022-07-11T13:43:21;3.80;;;2.20;;
71648;SDS011;59492;45.638;11.714;2022-07-11T13:45:47;3.90;;;2.20;;
71648;SDS011;59492;45.638;11.714;2022-07-11T13:48:12;3.20;;;2.30;;
71648;SDS011;59492;45.638;11.714;2022-07-11T13:50:40;3.00;;;2.00;;
71648;SDS011;59492;45.638;11.714;2022-07-11T13:53:07;2.70;;;1.90;;
71648;SDS011;59492;45.638;11.714;2022-07-11T13:55:33;5.00;;;2.40;;
71648;SDS011;59492;45.638;11.714;2022-07-11T13:57:59;5.30;;;2.20;;
71648;SDS011;59492;45.638;11.714;2022-07-11T14:00:26;5.10;;;2.30;;
71648;SDS011;59492;45.638;11.714;2022-07-11T14:02:54;3.40;;;1.90;;
71648;SDS011;59492;45.638;11.714;2022-07-11T14:05:20;4.20;;;1.90;;
71648;SDS011;59492;45.638;11.714;2022-07-11T14:07:46;3.10;;;2.00;;
71648;SDS011;59492;45.638;11.714;2022-07-11T14:10:13;6.50;;;2.20;;
71648;SDS011;59492;45.638;11.714;2022-07-11T14:12:40;5.20;;;2.30;;
71648;SDS011;59492;45.638;11.714;2022-07-11T14:15:07;2.90;;;2.00;;
71648;SDS011;59492;45.638;11.714;2022-07-11T14:17:34;4.20;;;2.00;;
71648;SDS011;59492;45.638;11.714;2022-07-11T14:20:00;3.10;;;2.00;;
71648;SDS011;59492;45.638;11.714;2022-07-11T14:22:26;3.70;;;2.00;;
71648;SDS011;59492;45.638;11.714;2022-07-11T14:24:52;3.80;;;2.00;;
71648;SDS011;59492;45.638;11.714;2022-07-11T14:27:17;10.00;;;2.40;;
71648;SDS011;59492;45.638;11.714;2022-07-11T14:29:44;5.00;;;1.70;;
71648;SDS011;59492;45.638;11.714;2022-07-11T14:32:13;4.10;;;1.70;;
71648;SDS011;59492;45.638;11.714;2022-07-11T14:34:39;3.30;;;1.90;;
71648;SDS011;59492;45.638;11.714;2022-07-11T14:37:05;6.90;;;2.20;;
71648;SDS011;59492;45.638;11.714;2022-07-11T14:39:32;6.00;;;2.00;;
71648;SDS011;59492;45.638;11.714;2022-07-11T14:41:58;3.80;;;1.90;;
71648;SDS011;59492;45.638;11.714;2022-07-11T14:44:25;3.50;;;1.80;;
71648;SDS011;59492;45.638;11.714;2022-07-11T14:46:52;3.40;;;1.90;;
71648;SDS011;59492;45.638;11.714;2022-07-11T14:49:18;3.10;;;1.80;;
71648;SDS011;59492;45.638;11.714;2022-07-11T14:51:44;4.80;;;1.80;;
71648;SDS011;59492;45.638;11.714;2022-07-11T14:54:09;3.20;;;1.90;;
71648;SDS011;59492;45.638;11.714;2022-07-11T14:56:36;5.60;;;2.00;;
71648;SDS011;59492;45.638;11.714;2022-07-11T14:59:05;5.30;;;2.10;;
71648;SDS011;59492;45.638;11.714;2022-07-11T15:01:31;6.30;;;2.30;;
71648;SDS011;59492;45.638;11.714;2022-07-11T15:03:58;3.90;;;2.30;;
71648;SDS011;59492;45.638;11.714;2022-07-11T15:06:24;3.90;;;1.80;;
71648;SDS011;59492;45.638;11.714;2022-07-11T15:09:16;4.00;;;1.90;;
71648;SDS011;59492;45.638;11.714;2022-07-11T15:12:33;3.40;;;2.20;;
71648;SDS011;59492;45.638;11.714;2022-07-11T15:15:06;4.70;;;2.10;;
71648;SDS011;59492;45.638;11.714;2022-07-11T15:17:33;3.70;;;2.10;;
71648;SDS011;59492;45.638;11.714;2022-07-11T15:19:58;3.80;;;2.20;;
71648;SDS011;59492;45.638;11.714;2022-07-11T15:22:38;3.40;;;2.20;;
71648;SDS011;59492;45.638;11.714;2022-07-11T15:25:16;6.40;;;1.80;;